Time;durP1;ratioP1;P1;durP2;ratioP2;P2;SDS_P1;SDS_P2;PMS_P1;PMS_P2;Temp;Humidity;BMP_temperature;BMP_pressure;BME280_temperature;BME280_humidity;BME280_pressure;Samples;Min_cycle;Max_cycle;Signal;HPM_P1;HPM_P2
2022/06/03 00:02:51;;;;;;;12.10;6.25;;;11.00;99.90;;;;;;5014407;28;20033;-68
2022/06/03 00:05:27;;;;;;;12.77;6.78;;;11.00;99.90;;;;;;5014235;28;20033;-68
2022/06/03 00:08:36;;;;;;;10.57;5.88;;;11.00;99.90;;;;;;5014373;28;20080;-68
2022/06/03 00:11:22;;;;;;;17.17;6.15;;;11.00;99.90;;;;;;4961076;28;20039;-68
2022/06/03 00:14:08;;;;;;;10.98;6.50;;;11.00;99.90;;;;;;5014324;28;20389;-68
2022/06/03 00:16:34;;;;;;;11.73;5.28;;;11.10;99.90;;;;;;5013142;28;20022;-68
2022/06/03 00:19:11;;;;;;;11.20;6.72;;;11.10;99.90;;;;;;5013870;28;20040;-68
2022/06/03 00:22:03;;;;;;;14.45;5.43;;;11.00;99.90;;;;;;5043517;23;20432;-70
2022/06/03 00:24:34;;;;;;;16.30;5.75;;;11.00;99.90;;;;;;5033973;28;20025;-69
2022/06/03 00:27:26;;;;;;;13.52;6.03;;;11.00;99.90;;;;;;5033691;28;20026;-70
2022/06/03 00:30:21;;;;;;;19.33;6.43;;;10.90;99.90;;;;;;5033660;28;20024;-70
2022/06/03 00:33:18;;;;;;;20.63;6.07;;;10.90;99.90;;;;;;5033955;28;20044;-70
2022/06/03 00:36:07;;;;;;;19.23;6.35;;;10.90;99.90;;;;;;5033687;28;20081;-70
2022/06/03 00:38:50;;;;;;;20.52;6.68;;;10.90;99.90;;;;;;5033852;28;20030;-70
2022/06/03 00:41:37;;;;;;;17.15;6.78;;;11.00;99.90;;;;;;5033510;28;20065;-70
2022/06/03 00:44:25;;;;;;;15.60;5.63;;;10.90;99.90;;;;;;5033575;28;20033;-70
2022/06/03 00:47:13;;;;;;;20.10;6.85;;;10.90;99.90;;;;;;5033716;28;20075;-70
2022/06/03 00:50:01;;;;;;;18.45;7.18;;;10.90;99.90;;;;;;5033567;28;20036;-70
2022/06/03 00:52:38;;;;;;;22.80;7.13;;;10.90;99.90;;;;;;5033771;28;20017;-70
2022/06/03 00:55:15;;;;;;;20.20;6.85;;;10.90;99.90;;;;;;5033469;28;20023;-70
2022/06/03 00:57:59;;;;;;;16.05;6.15;;;10.90;99.90;;;;;;5033299;28;20033;-70
2022/06/03 01:00:35;;;;;;;16.70;7.68;;;10.90;99.90;;;;;;5033596;28;20112;-70
2022/06/03 01:03:12;;;;;;;9.95;5.80;;;10.90;99.90;;;;;;5033608;28;20030;-70
2022/06/03 01:06:18;;;;;;;17.58;5.53;;;10.80;99.90;;;;;;5033268;28;20064;-70
2022/06/03 01:09:01;;;;;;;14.68;6.18;;;10.80;99.90;;;;;;5033777;28;20025;-70
2022/06/03 01:11:44;;;;;;;20.90;6.35;;;10.80;99.90;;;;;;5033355;28;20033;-71
2022/06/03 01:14:30;;;;;;;15.75;5.95;;;10.80;99.90;;;;;;5033360;28;20477;-70
2022/06/03 01:17:13;;;;;;;14.18;6.32;;;10.80;99.90;;;;;;5033788;28;20033;-70
2022/06/03 01:19:46;;;;;;;21.83;6.70;;;10.80;99.90;;;;;;5033130;28;20473;-70
2022/06/03 01:22:24;;;;;;;16.57;6.23;;;10.70;99.90;;;;;;5033597;28;20532;-70
2022/06/03 01:25:10;;;;;;;19.90;6.32;;;10.70;99.90;;;;;;5033191;28;20041;-70
2022/06/03 01:27:41;;;;;;;15.20;6.28;;;10.70;99.90;;;;;;5035510;28;20030;-70
2022/06/03 01:30:20;;;;;;;14.50;6.15;;;10.70;99.90;;;;;;5036775;28;20096;-70
2022/06/03 01:33:10;;;;;;;12.82;5.88;;;10.70;99.90;;;;;;5037135;28;20034;-70
2022/06/03 01:35:35;;;;;;;23.40;7.28;;;10.60;99.90;;;;;;5036642;28;20025;-70
2022/06/03 01:38:18;;;;;;;14.75;6.32;;;10.60;99.90;;;;;;5036762;28;20040;-70
2022/06/03 01:41:05;;;;;;;17.58;6.28;;;10.60;99.90;;;;;;5036652;28;20026;-70
2022/06/03 01:44:08;;;;;;;18.52;7.03;;;10.50;99.90;;;;;;5036516;28;20035;-70
2022/06/03 01:46:42;;;;;;;14.60;7.32;;;10.60;99.90;;;;;;5036910;28;20029;-69
2022/06/03 01:49:39;;;;;;;16.75;7.03;;;10.50;99.90;;;;;;5036891;28;20017;-70
2022/06/03 01:52:26;;;;;;;17.95;8.48;;;10.50;99.90;;;;;;5036786;28;20481;-70
2022/06/03 01:55:48;;;;;;;21.13;6.50;;;10.50;99.90;;;;;;5036317;28;20029;-70
2022/06/03 01:58:19;;;;;;;19.25;6.38;;;10.40;99.90;;;;;;4976322;28;20042;-70
2022/06/03 02:00:58;;;;;;;13.73;6.32;;;10.40;99.90;;;;;;5034912;28;20037;-70
2022/06/03 02:03:46;;;;;;;18.13;7.10;;;10.30;99.90;;;;;;5036547;28;20079;-70
2022/06/03 02:06:18;;;;;;;14.27;6.53;;;10.30;99.90;;;;;;5036554;28;20408;-70
2022/06/03 02:09:09;;;;;;;12.38;6.60;;;10.20;99.90;;;;;;5035998;28;20022;-70
2022/06/03 02:11:45;;;;;;;30.30;7.35;;;10.30;99.90;;;;;;5035784;28;20055;-70
2022/06/03 02:14:14;;;;;;;13.68;8.00;;;10.30;99.90;;;;;;5036605;28;20024;-70
2022/06/03 02:16:54;;;;;;;15.60;6.30;;;10.20;99.90;;;;;;5036301;28;20028;-70
2022/06/03 02:20:04;;;;;;;22.15;7.30;;;10.30;99.90;;;;;;5036001;28;20107;-70
2022/06/03 02:23:02;;;;;;;12.55;6.78;;;10.30;99.90;;;;;;5012737;28;20045;-70
2022/06/03 02:26:09;;;;;;;15.73;6.05;;;10.30;99.90;;;;;;5036210;28;20411;-70
2022/06/03 02:28:46;;;;;;;14.30;5.65;;;10.30;99.90;;;;;;5034428;28;20076;-70
2022/06/03 02:31:17;;;;;;;14.27;5.03;;;10.30;99.90;;;;;;5017941;28;20026;-70
2022/06/03 02:33:49;;;;;;;13.82;6.25;;;10.30;99.90;;;;;;5035671;28;20474;-70
2022/06/03 02:36:49;;;;;;;20.70;7.10;;;10.30;99.90;;;;;;5035892;28;20049;-70
2022/06/03 02:39:36;;;;;;;22.35;7.82;;;10.20;99.90;;;;;;5035546;28;20029;-70
2022/06/03 02:42:22;;;;;;;17.70;8.35;;;10.10;99.90;;;;;;5035751;28;20044;-70
2022/06/03 02:44:48;;;;;;;14.20;7.40;;;10.10;99.90;;;;;;5036024;28;20472;-70
2022/06/03 02:47:50;;;;;;;19.48;6.10;;;10.10;99.90;;;;;;5035349;28;20108;-70
2022/06/03 02:50:16;;;;;;;18.05;7.22;;;10.00;99.90;;;;;;5035650;28;20021;-70
2022/06/03 02:53:24;;;;;;;17.20;7.25;;;10.00;99.90;;;;;;5035518;28;20022;-70
2022/06/03 02:55:58;;;;;;;13.77;6.93;;;9.90;99.90;;;;;;5004512;28;20489;-70
2022/06/03 02:58:29;;;;;;;14.93;6.80;;;9.80;99.90;;;;;;5035521;28;20474;-70
2022/06/03 03:01:01;;;;;;;15.45;6.65;;;9.70;99.90;;;;;;5035384;28;20084;-70
2022/06/03 03:03:56;;;;;;;23.30;7.57;;;9.60;99.90;;;;;;5035181;28;20036;-70
2022/06/03 03:06:46;;;;;;;16.73;7.22;;;9.40;99.90;;;;;;5035723;28;20375;-70
2022/06/03 03:09:32;;;;;;;17.98;8.57;;;9.30;99.90;;;;;;5035032;28;20100;-70
2022/06/03 03:12:36;;;;;;;20.08;8.05;;;9.20;99.90;;;;;;5016992;28;20026;-70
2022/06/03 03:15:40;;;;;;;13.75;7.50;;;9.20;99.90;;;;;;5035227;28;20416;-70
2022/06/03 03:18:21;;;;;;;19.63;8.50;;;9.30;99.90;;;;;;5035091;28;20031;-70
2022/06/03 03:21:00;;;;;;;19.75;8.38;;;9.30;99.90;;;;;;5034532;28;20300;-70
2022/06/03 03:23:44;;;;;;;27.95;8.98;;;9.30;99.90;;;;;;5034797;28;20033;-70
2022/06/03 03:26:36;;;;;;;14.02;7.45;;;9.30;99.90;;;;;;5034905;28;20065;-70
2022/06/03 03:29:10;;;;;;;10.75;7.45;;;9.40;99.90;;;;;;5034733;28;20021;-70
2022/06/03 03:31:58;;;;;;;16.25;7.28;;;9.40;99.90;;;;;;5034807;28;20440;-69
2022/06/03 03:34:45;;;;;;;27.77;8.38;;;9.40;99.90;;;;;;5034720;28;20577;-69
2022/06/03 03:37:49;;;;;;;18.08;8.73;;;9.30;99.90;;;;;;5034277;28;20032;-69
2022/06/03 03:40:28;;;;;;;;;;;9.30;99.90;;;;;;5035000;28;20489;-69
2022/06/03 03:43:18;;;;;;;20.27;9.05;;;9.30;99.90;;;;;;5034600;28;20320;-69
2022/06/03 03:45:53;;;;;;;16.52;8.07;;;9.20;99.90;;;;;;5034305;28;20029;-69
2022/06/03 03:48:35;;;;;;;19.30;8.68;;;9.10;99.90;;;;;;5034567;28;20048;-69
2022/06/03 03:51:19;;;;;;;16.55;8.05;;;9.00;99.90;;;;;;5033459;28;20139;-70
2022/06/03 03:54:20;;;;;;;25.15;9.45;;;8.90;99.90;;;;;;5034256;28;20386;-69
2022/06/03 03:57:23;;;;;;;18.20;8.18;;;8.90;99.90;;;;;;5034442;28;20116;-69
2022/06/03 04:00:06;;;;;;;21.08;8.85;;;8.80;99.90;;;;;;5034315;28;20048;-69
2022/06/03 04:03:09;;;;;;;17.88;8.98;;;8.80;99.90;;;;;;5034432;28;20076;-69
2022/06/03 04:06:08;;;;;;;27.30;11.13;;;8.90;99.90;;;;;;5034107;28;20096;-69
2022/06/03 04:09:01;;;;;;;28.25;10.38;;;9.10;99.90;;;;;;5034176;28;20053;-69
2022/06/03 04:11:48;;;;;;;17.02;10.75;;;9.30;99.90;;;;;;5034278;28;20436;-69
2022/06/03 04:14:32;;;;;;;25.95;11.32;;;9.40;99.90;;;;;;5034392;28;20075;-69
2022/06/03 04:17:41;;;;;;;25.65;10.75;;;9.50;99.90;;;;;;5034298;28;20354;-69
2022/06/03 04:20:06;;;;;;;25.50;12.07;;;9.50;99.90;;;;;;5033624;28;20041;-69
2022/06/03 04:23:04;;;;;;;21.65;10.90;;;9.50;99.90;;;;;;5015929;28;20500;-69
2022/06/03 04:25:51;;;;;;;20.83;10.10;;;9.50;99.90;;;;;;5003006;28;20045;-69
2022/06/03 04:28:41;;;;;;;17.88;10.35;;;9.70;99.90;;;;;;5033804;28;20105;-69
2022/06/03 04:31:33;;;;;;;18.85;10.57;;;9.80;99.90;;;;;;5033553;28;20420;-69
2022/06/03 04:34:29;;;;;;;20.80;11.00;;;9.80;99.90;;;;;;5033848;28;20022;-69
2022/06/03 04:37:26;;;;;;;19.60;10.25;;;10.00;99.90;;;;;;5033746;28;20533;-69
2022/06/03 04:40:32;;;;;;;15.55;9.63;;;10.00;99.90;;;;;;5033474;28;20033;-69
2022/06/03 04:43:37;;;;;;;17.55;9.90;;;10.10;99.90;;;;;;5033661;28;20036;-69
2022/06/03 04:46:21;;;;;;;;;;;10.30;99.90;;;;;;5033992;28;20041;-69
2022/06/03 04:49:00;;;;;;;21.23;9.98;;;10.50;99.90;;;;;;5033371;28;19913;-69
2022/06/03 04:51:51;;;;;;;19.90;10.35;;;10.60;99.90;;;;;;5033772;28;20074;-69
2022/06/03 04:55:09;;;;;;;20.23;8.00;;;10.70;99.90;;;;;;5033472;28;20083;-69
2022/06/03 04:57:58;;;;;;;16.10;8.05;;;10.70;99.90;;;;;;5015695;28;20086;-69
2022/06/03 05:00:34;;;;;;;17.95;7.75;;;10.80;99.90;;;;;;5033445;28;20108;-69
2022/06/03 05:03:37;;;;;;;16.55;7.03;;;10.80;99.90;;;;;;5036889;28;20056;-69
2022/06/03 05:06:30;;;;;;;15.90;7.43;;;10.80;99.90;;;;;;5037508;28;20025;-69
2022/06/03 05:09:05;;;;;;;14.40;7.32;;;10.90;99.90;;;;;;5037477;28;20034;-69
2022/06/03 05:11:52;;;;;;;23.30;7.25;;;11.10;99.90;;;;;;5037015;28;20030;-69
2022/06/03 05:14:50;;;;;;;18.65;5.70;;;11.10;99.90;;;;;;5019372;28;20025;-69
2022/06/03 05:17:40;;;;;;;24.65;5.93;;;11.20;99.90;;;;;;5037340;28;20037;-69
2022/06/03 05:20:05;;;;;;;12.23;5.20;;;11.20;99.90;;;;;;5036957;28;20375;-69
2022/06/03 05:22:47;;;;;;;22.70;6.60;;;11.20;99.90;;;;;;5037239;28;20076;-68
2022/06/03 05:25:42;;;;;;;14.70;6.65;;;11.30;99.90;;;;;;5037336;28;20040;-69
2022/06/03 05:28:26;;;;;;;14.05;6.75;;;11.30;99.90;;;;;;5036806;28;20033;-69
2022/06/03 05:31:20;;;;;;;17.80;5.65;;;11.50;99.90;;;;;;5036845;28;20052;-69
2022/06/03 05:33:51;;;;;;;13.70;6.73;;;11.70;99.90;;;;;;5036807;28;20404;-69
2022/06/03 05:36:42;;;;;;;16.63;6.18;;;11.80;99.90;;;;;;5037028;28;20025;-69
2022/06/03 05:39:47;;;;;;;10.23;5.40;;;11.90;99.90;;;;;;5036882;28;20026;-69
2022/06/03 05:42:31;;;;;;;16.50;5.80;;;11.90;99.90;;;;;;5036685;28;20017;-69
2022/06/03 05:45:17;;;;;;;11.57;5.22;;;11.90;99.90;;;;;;5036694;28;20087;-68
2022/06/03 05:47:55;;;;;;;14.98;4.75;;;12.00;99.90;;;;;;5036593;28;20049;-69
2022/06/03 05:50:42;;;;;;;13.32;5.60;;;12.10;99.90;;;;;;5018756;28;20116;-69
2022/06/03 05:53:26;;;;;;;14.80;5.07;;;12.20;99.90;;;;;;5036964;28;20022;-69
2022/06/03 05:56:40;;;;;;;15.40;5.32;;;12.30;99.90;;;;;;5036438;28;20492;-69
2022/06/03 05:59:43;;;;;;;14.70;4.57;;;12.40;99.90;;;;;;5013785;28;20043;-69
2022/06/03 06:02:30;;;;;;;13.20;4.90;;;12.80;99.90;;;;;;5036150;28;20025;-69
2022/06/03 06:05:14;;;;;;;11.27;4.35;;;13.00;99.90;;;;;;5036293;28;20048;-69
2022/06/03 06:08:12;;;;;;;18.33;4.35;;;13.10;99.90;;;;;;5036599;28;20037;-69
2022/06/03 06:11:10;;;;;;;13.75;5.68;;;13.20;99.90;;;;;;5036140;28;20026;-69
2022/06/03 06:14:09;;;;;;;13.88;5.00;;;13.40;99.90;;;;;;5035058;28;20017;-69
2022/06/03 06:16:40;;;;;;;11.95;3.47;;;13.50;99.90;;;;;;5036188;28;20013;-69
2022/06/03 06:19:11;;;;;;;18.33;5.10;;;13.40;99.90;;;;;;5036093;28;20029;-69
2022/06/03 06:21:58;;;;;;;11.25;4.45;;;13.40;99.90;;;;;;5079669;23;20041;-74
2022/06/03 06:25:07;;;;;;;16.23;5.32;;;13.50;99.90;;;;;;5075950;28;20484;-74
2022/06/03 06:27:33;;;;;;;10.88;5.55;;;13.70;99.90;;;;;;5075959;28;20036;-74
2022/06/03 06:30:09;;;;;;;12.35;4.60;;;13.90;99.90;;;;;;5076067;28;20096;-74
2022/06/03 06:33:03;;;;;;;16.48;4.28;;;14.10;99.90;;;;;;5056207;28;20033;-74
2022/06/03 06:35:47;;;;;;;10.20;4.72;;;14.20;99.90;;;;;;5056011;28;20075;-74
2022/06/03 06:38:42;;;;;;;12.80;5.38;;;14.10;99.90;;;;;;5055915;28;20442;-74
2022/06/03 06:41:30;;;;;;;13.05;4.63;;;14.10;99.90;;;;;;5055730;28;20468;-74
2022/06/03 06:44:15;;;;;;;12.95;4.97;;;14.20;99.90;;;;;;5055608;28;20036;-74
2022/06/03 06:46:57;;;;;;;6.45;4.57;;;14.20;99.90;;;;;;5055678;28;20092;-74
2022/06/03 06:49:34;;;;;;;15.77;4.15;;;14.20;99.90;;;;;;5055622;28;20508;-74
2022/06/03 06:52:23;;;;;;;15.65;6.40;;;14.40;99.90;;;;;;5055363;28;20075;-74
2022/06/03 06:54:52;;;;;;;14.88;4.40;;;14.40;99.90;;;;;;5055729;28;20025;-73
2022/06/03 06:57:23;;;;;;;11.93;5.30;;;14.50;99.90;;;;;;5055481;28;20071;-74
2022/06/03 07:00:27;;;;;;;9.82;4.78;;;14.60;99.90;;;;;;5055503;28;20036;-74
2022/06/03 07:03:11;;;;;;;16.77;5.22;;;14.80;99.90;;;;;;5055003;28;20064;-74
2022/06/03 07:05:51;;;;;;;11.60;4.75;;;14.60;99.90;;;;;;5055219;28;20049;-74
2022/06/03 07:08:22;;;;;;;10.75;4.10;;;14.60;99.90;;;;;;5055611;28;20132;-74
2022/06/03 07:11:01;;;;;;;14.10;3.92;;;14.50;99.90;;;;;;5060821;28;20021;-74
2022/06/03 07:13:39;;;;;;;17.25;4.32;;;14.60;99.90;;;;;;5059976;28;20081;-74
2022/06/03 07:16:07;;;;;;;11.25;4.28;;;14.90;99.90;;;;;;5056562;28;20025;-75
2022/06/03 07:22:17;;;;;;;8.55;4.43;;;15.30;99.90;;;;;;5034903;28;20405;-74
2022/06/03 07:24:42;;;;;;;;;;;15.20;99.90;;;;;;5056949;28;20029;-75
2022/06/03 07:27:28;;;;;;;11.88;5.32;;;14.80;99.90;;;;;;5055873;28;19909;-75
2022/06/03 07:30:04;;;;;;;12.02;5.05;;;14.60;99.90;;;;;;5056107;28;20056;-74
2022/06/03 07:32:38;;;;;;;14.63;4.78;;;14.60;99.90;;;;;;5056541;28;20025;-75
2022/06/03 07:35:13;;;;;;;8.93;4.68;;;14.60;99.90;;;;;;5057255;28;20028;-75
2022/06/03 07:38:01;;;;;;;15.57;4.68;;;14.80;99.90;;;;;;5055754;28;20473;-75
2022/06/03 07:40:39;;;;;;;8.55;3.85;;;15.10;99.90;;;;;;5056090;28;20067;-75
2022/06/03 07:43:11;;;;;;;20.85;3.60;;;15.40;99.90;;;;;;5055136;28;20032;-74
2022/06/03 07:45:59;;;;;;;14.05;4.00;;;15.50;99.90;;;;;;5055702;28;20039;-74
2022/06/03 07:48:28;;;;;;;11.38;3.97;;;15.70;99.90;;;;;;5055214;28;20090;-74
2022/06/03 07:50:58;;;;;;;8.48;3.70;;;16.00;99.90;;;;;;5054648;28;20108;-74
2022/06/03 07:53:34;;;;;;;15.23;4.13;;;16.10;99.90;;;;;;5054697;28;20393;-74
2022/06/03 07:56:00;;;;;;;13.48;3.80;;;16.30;99.90;;;;;;5054374;28;20067;-74
2022/06/03 07:58:31;;;;;;;8.93;4.05;;;16.10;99.90;;;;;;5054654;28;20028;-75
2022/06/03 08:00:56;;;;;;;15.00;4.00;;;15.80;99.90;;;;;;5054517;28;20088;-74
2022/06/03 08:03:24;;;;;;;11.00;3.75;;;15.60;99.90;;;;;;5054374;28;20028;-74
2022/06/03 08:06:02;;;;;;;23.92;4.25;;;15.60;99.90;;;;;;5054937;28;20354;-75
2022/06/03 08:11:17;;;;;;;9.60;3.38;;;15.90;99.90;;;;;;5054339;28;20039;-75
2022/06/03 08:13:50;;;;;;;11.90;4.85;;;16.00;99.90;;;;;;5054720;28;20040;-74
2022/06/03 08:16:35;;;;;;;12.00;4.00;;;16.10;99.90;;;;;;5054890;28;20021;-75
2022/06/03 08:19:26;;;;;;;17.77;4.40;;;16.20;99.90;;;;;;5054580;28;20021;-75
2022/06/03 08:22:01;;;;;;;10.63;4.32;;;16.40;99.90;;;;;;5053792;28;20480;-74
2022/06/03 08:24:30;;;;;;;8.80;3.42;;;16.60;99.90;;;;;;5053956;28;20033;-75
2022/06/03 08:27:24;;;;;;;17.95;4.15;;;16.50;99.90;;;;;;5054122;28;20434;-74
2022/06/03 08:29:55;;;;;;;10.77;3.47;;;16.60;99.90;;;;;;5054919;28;20017;-75
2022/06/03 08:32:27;;;;;;;8.15;3.22;;;16.50;99.90;;;;;;5055088;28;20371;-75
2022/06/03 08:34:56;;;;;;;8.00;3.58;;;16.50;99.90;;;;;;5052780;28;20500;-74
2022/06/03 08:37:28;;;;;;;11.48;4.07;;;16.70;99.90;;;;;;5053413;28;20393;-74
2022/06/03 08:39:58;;;;;;;10.95;3.63;;;17.00;99.90;;;;;;5054272;28;20028;-74
2022/06/03 08:42:30;;;;;;;8.68;4.15;;;17.10;99.90;;;;;;5053777;28;20116;-73
2022/06/03 08:45:15;;;;;;;7.28;4.15;;;17.30;99.90;;;;;;5053653;28;20021;-74
2022/06/03 08:47:55;;;;;;;8.25;4.60;;;17.20;99.90;;;;;;5053566;28;20018;-74
2022/06/03 08:50:44;;;;;;;13.77;6.18;;;17.30;99.90;;;;;;5054033;28;20017;-74
2022/06/03 08:53:23;;;;;;;10.48;4.78;;;17.20;99.90;;;;;;5054422;28;20373;-74
2022/06/03 08:55:54;;;;;;;10.50;4.82;;;17.50;99.90;;;;;;5054395;28;20025;-74
2022/06/03 08:58:26;;;;;;;12.50;4.32;;;17.60;99.90;;;;;;5054198;28;20029;-74
2022/06/03 09:01:22;;;;;;;12.82;4.53;;;17.70;99.90;;;;;;5053985;28;20111;-74
2022/06/03 09:03:47;;;;;;;10.15;4.15;;;17.60;99.90;;;;;;5054598;28;20072;-74
2022/06/03 09:06:28;;;;;;;6.00;3.85;;;17.70;99.90;;;;;;5053987;28;20032;-74
2022/06/03 09:08:59;;;;;;;9.35;3.97;;;17.80;99.90;;;;;;5053939;28;20086;-74
2022/06/03 09:11:42;;;;;;;9.23;3.47;;;17.90;99.90;;;;;;5054053;28;20027;-74
2022/06/03 09:14:12;;;;;;;11.10;4.35;;;18.10;99.90;;;;;;5054116;28;20082;-74
2022/06/03 09:16:40;;;;;;;13.00;4.00;;;18.00;99.90;;;;;;5053755;28;20575;-74
2022/06/03 09:19:12;;;;;;;10.50;3.70;;;18.00;99.90;;;;;;5055218;28;20049;-74
2022/06/03 09:21:41;;;;;;;9.38;3.85;;;18.00;99.90;;;;;;5055550;28;20033;-74
2022/06/03 09:24:21;;;;;;;14.45;4.43;;;18.40;99.90;;;;;;5054820;28;20029;-74
2022/06/03 09:26:54;;;;;;;6.63;3.45;;;18.70;99.90;;;;;;5056289;28;20029;-74
2022/06/03 09:29:20;;;;;;;14.83;5.00;;;18.90;99.90;;;;;;5050702;28;20028;-74
2022/06/03 09:31:53;;;;;;;18.27;6.78;;;18.90;99.90;;;;;;5035899;28;20027;-74
2022/06/03 09:34:25;;;;;;;14.68;4.13;;;18.90;99.90;;;;;;5035283;28;20084;-74
2022/06/03 09:36:54;;;;;;;11.48;4.05;;;18.90;99.90;;;;;;5035663;28;20036;-74
2022/06/03 09:39:21;;;;;;;9.27;3.60;;;19.10;99.90;;;;;;5035212;28;20104;-74
2022/06/03 09:41:55;;;;;;;12.55;4.20;;;19.10;99.90;;;;;;5035488;28;20025;-74
2022/06/03 09:44:23;;;;;;;9.63;3.50;;;19.20;99.90;;;;;;5042065;28;20021;-74
2022/06/03 09:46:57;;;;;;;8.82;3.28;;;19.00;99.90;;;;;;5055780;28;20077;-74
2022/06/03 09:49:24;;;;;;;8.73;3.30;;;19.30;99.90;;;;;;5059077;28;20029;-74
2022/06/03 09:51:55;;;;;;;6.90;3.47;;;19.20;99.90;;;;;;5058710;28;20171;-74
2022/06/03 09:54:36;;;;;;;6.40;3.58;;;19.40;99.90;;;;;;5058509;28;20513;-75
2022/06/03 09:57:30;;;;;;;7.43;3.03;;;19.60;99.90;;;;;;5058792;28;20021;-74
2022/06/03 10:00:24;;;;;;;7.20;2.92;;;19.40;99.90;;;;;;5058725;28;20017;-75
2022/06/03 10:02:52;;;;;;;7.00;2.90;;;19.50;99.90;;;;;;5057126;28;20032;-74
2022/06/03 10:05:20;;;;;;;9.95;4.28;;;19.50;99.90;;;;;;5056491;28;20481;-75
2022/06/03 10:07:48;;;;;;;7.90;3.25;;;19.40;99.90;;;;;;5056529;28;20071;-75
2022/06/03 10:13:01;;;;;;;9.20;2.83;;;19.50;99.90;;;;;;5056832;28;20063;-75
2022/06/03 10:15:43;;;;;;;7.75;2.90;;;19.40;99.90;;;;;;5056496;28;20021;-74
2022/06/03 10:18:28;;;;;;;4.65;2.78;;;19.20;99.90;;;;;;5056228;28;20040;-75
2022/06/03 10:20:56;;;;;;;7.35;3.00;;;19.40;99.90;;;;;;5056180;28;20467;-75
2022/06/03 10:23:26;;;;;;;9.40;2.83;;;19.20;99.90;;;;;;5056432;28;20075;-75
2022/06/03 10:25:52;;;;;;;5.40;2.67;;;19.30;99.90;;;;;;5056190;28;20476;-75
2022/06/03 10:28:19;;;;;;;6.90;2.72;;;19.40;99.90;;;;;;5056252;28;20125;-75
2022/06/03 10:30:57;;;;;;;5.97;2.70;;;19.50;99.90;;;;;;5056058;28;20017;-75
2022/06/03 10:33:22;;;;;;;3.75;2.78;;;19.30;99.90;;;;;;5055816;28;20032;-75
2022/06/03 10:35:52;;;;;;;10.75;2.83;;;19.20;99.90;;;;;;5055845;28;20025;-75
2022/06/03 10:38:20;;;;;;;6.88;2.75;;;19.30;99.90;;;;;;5055870;28;20112;-75
2022/06/03 10:40:51;;;;;;;7.00;3.20;;;19.40;99.90;;;;;;5055643;28;20544;-75
2022/06/03 10:43:47;;;;;;;8.30;2.72;;;19.40;99.90;;;;;;5055759;28;20040;-75
2022/06/03 10:46:16;;;;;;;6.60;2.83;;;19.40;99.90;;;;;;5043688;28;20036;-75
2022/06/03 10:48:43;;;;;;;5.65;2.38;;;19.50;99.90;;;;;;5054504;28;20093;-75
2022/06/03 10:51:18;;;;;;;9.13;3.33;;;19.50;99.90;;;;;;5055482;28;20475;-75
2022/06/03 11:02:38;;;;;;;4.20;2.08;;;19.60;99.90;;;;;;5055964;28;20067;-73
2022/06/03 11:05:24;;;;;;;6.95;2.67;;;19.80;99.90;;;;;;5055525;28;20028;-72
2022/06/03 11:08:03;;;;;;;9.13;2.80;;;20.20;99.90;;;;;;5055110;28;20029;-72
2022/06/03 11:10:51;;;;;;;6.00;3.05;;;20.50;99.90;;;;;;5055162;28;20044;-72
2022/06/03 11:13:39;;;;;;;5.05;3.20;;;20.30;99.90;;;;;;5055335;28;20096;-73
2022/06/03 11:16:22;;;;;;;4.80;2.47;;;20.50;99.90;;;;;;5055109;28;20025;-73
2022/06/03 11:18:48;;;;;;;5.93;2.55;;;20.80;99.90;;;;;;5054926;28;20082;-73
2022/06/03 11:21:26;;;;;;;6.32;2.70;;;20.80;99.90;;;;;;5054526;28;20072;-72
2022/06/03 11:23:55;;;;;;;6.90;2.67;;;20.60;99.90;;;;;;5054751;28;20509;-73
2022/06/03 11:26:24;;;;;;;8.15;3.58;;;20.70;99.90;;;;;;5055014;28;20037;-73
2022/06/03 11:28:58;;;;;;;6.75;3.00;;;20.60;99.90;;;;;;5054766;28;20138;-73
2022/06/03 11:31:35;;;;;;;5.82;3.05;;;20.50;99.90;;;;;;5054809;28;20024;-72
2022/06/03 11:34:01;;;;;;;8.93;2.60;;;20.50;99.90;;;;;;5054681;28;20032;-72
2022/06/03 11:36:38;;;;;;;6.85;2.72;;;20.40;99.90;;;;;;5054521;28;20025;-72
2022/06/03 11:39:22;;;;;;;4.43;2.35;;;20.50;99.90;;;;;;5054627;28;20028;-73
2022/06/03 11:41:58;;;;;;;9.48;3.25;;;20.50;99.90;;;;;;5054503;28;20029;-72
2022/06/03 11:44:26;;;;;;;8.68;2.45;;;20.30;99.90;;;;;;5054645;28;20075;-73
2022/06/03 11:46:57;;;;;;;7.30;3.10;;;20.20;99.90;;;;;;5054289;28;20029;-73
2022/06/03 11:49:24;;;;;;;5.93;2.72;;;20.30;99.90;;;;;;5054445;28;20026;-72
2022/06/03 11:51:50;;;;;;;10.07;3.30;;;20.30;99.90;;;;;;5054150;28;20025;-72
2022/06/03 11:54:21;;;;;;;4.70;2.65;;;20.40;99.90;;;;;;5054117;28;20021;-72
2022/06/03 11:56:48;;;;;;;8.88;2.67;;;20.70;99.90;;;;;;5054370;28;20017;-72
2022/06/03 11:59:19;;;;;;;5.78;3.20;;;21.30;99.90;;;;;;5055635;28;20154;-75
2022/06/03 12:01:53;;;;;;;4.15;2.40;;;21.20;99.90;;;;;;5056038;28;20380;-75
2022/06/03 12:04:44;;;;;;;10.57;3.00;;;21.10;99.90;;;;;;5055898;28;20029;-76
2022/06/03 12:07:25;;;;;;;6.65;2.72;;;21.10;99.90;;;;;;5056291;28;20060;-75
2022/06/03 12:10:22;;;;;;;8.10;2.70;;;21.60;99.90;;;;;;5055876;28;20082;-75
2022/06/03 12:13:15;;;;;;;8.13;2.35;;;22.00;99.90;;;;;;5002050;28;20091;-76
2022/06/03 12:15:53;;;;;;;6.13;2.30;;;21.70;99.90;;;;;;5055501;28;20052;-76
2022/06/03 12:18:42;;;;;;;3.90;1.92;;;21.80;99.90;;;;;;5055154;28;20107;-76
2022/06/03 12:21:09;;;;;;;7.32;3.08;;;21.90;99.90;;;;;;5091190;22;20013;-71
2022/06/03 12:23:38;;;;;;;7.40;2.45;;;21.90;99.90;;;;;;5054829;28;20037;-71
2022/06/03 12:26:10;;;;;;;4.80;2.38;;;22.20;99.90;;;;;;5054171;28;20033;-71
2022/06/03 12:28:41;;;;;;;9.00;2.75;;;22.30;99.90;;;;;;5054185;28;20037;-71
2022/06/03 12:31:17;;;;;;;3.20;1.77;;;22.40;99.90;;;;;;5050513;28;20024;-71
2022/06/03 12:34:01;;;;;;;3.47;1.80;;;21.90;99.90;;;;;;5016819;28;20025;-71
2022/06/03 12:36:33;;;;;;;5.65;1.75;;;22.20;99.90;;;;;;5034558;28;20044;-71
2022/06/03 12:39:01;;;;;;;4.72;1.85;;;22.40;99.90;;;;;;5034833;28;20026;-71
2022/06/03 12:41:45;;;;;;;7.70;1.90;;;22.90;99.90;;;;;;5034536;28;20451;-71
2022/06/03 12:44:23;;;;;;;4.63;2.00;;;23.10;99.90;;;;;;5034753;28;20465;-71
2022/06/03 12:46:49;;;;;;;7.72;1.80;;;23.50;99.90;;;;;;5034725;28;20026;-71
2022/06/03 12:49:39;;;;;;;5.43;2.80;;;23.30;99.90;;;;;;5034500;28;20068;-71
2022/06/03 12:52:11;;;;;;;3.40;1.42;;;23.20;99.90;;;;;;5034038;28;20108;-71
2022/06/03 12:54:53;;;;;;;7.00;1.60;;;23.80;99.90;;;;;;5034512;28;20056;-71
2022/06/03 12:57:31;;;;;;;3.75;1.67;;;23.90;99.90;;;;;;5034597;28;20025;-71
2022/06/03 13:00:13;;;;;;;6.28;2.22;;;24.10;99.90;;;;;;5034238;28;20389;-71
2022/06/03 13:03:00;;;;;;;10.50;2.10;;;23.90;99.90;;;;;;5034392;28;20040;-71
2022/06/03 13:05:44;;;;;;;13.75;1.92;;;23.40;99.90;;;;;;5034278;28;20456;-71
2022/06/03 13:08:32;;;;;;;10.15;2.10;;;23.80;99.90;;;;;;5034440;28;20030;-71
2022/06/03 13:11:04;;;;;;;8.77;2.03;;;23.90;99.90;;;;;;5033872;28;20109;-71
2022/06/03 13:13:29;;;;;;;9.38;2.03;;;23.90;99.90;;;;;;5034024;28;20049;-70
2022/06/03 13:16:17;;;;;;;8.63;1.80;;;24.00;99.90;;;;;;5033642;28;20064;-70
2022/06/03 13:18:53;;;;;;;6.70;2.05;;;24.60;99.90;;;;;;5033415;28;20034;-71
2022/06/03 13:21:45;;;;;;;7.53;1.95;;;24.30;99.90;;;;;;5033532;28;20481;-71
2022/06/03 13:24:24;;;;;;;3.53;1.67;;;24.40;99.90;;;;;;5037017;28;20040;-71
2022/06/03 13:27:06;;;;;;;4.75;2.20;;;24.40;99.50;;;;;;5037133;28;20017;-71
2022/06/03 13:29:50;;;;;;;6.63;1.77;;;24.40;99.90;;;;;;5037373;28;20028;-70
2022/06/03 13:32:19;;;;;;;6.43;2.55;;;24.40;99.90;;;;;;5037203;28;20075;-70
2022/06/03 13:34:45;;;;;;;3.83;1.67;;;24.40;99.90;;;;;;5037093;28;20033;-71
2022/06/03 13:37:44;;;;;;;3.30;1.55;;;24.30;99.90;;;;;;5037263;28;20026;-71
2022/06/03 13:40:21;;;;;;;7.75;1.45;;;24.40;99.90;;;;;;5037265;28;20018;-71
2022/06/03 13:42:58;;;;;;;3.75;1.60;;;24.60;99.90;;;;;;5036845;28;20029;-71
2022/06/03 13:45:46;;;;;;;3.30;1.33;;;24.40;99.90;;;;;;5036956;28;20030;-71
2022/06/03 13:48:21;;;;;;;6.53;1.65;;;24.40;99.90;;;;;;5037076;28;20363;-71
2022/06/03 13:50:47;;;;;;;3.83;1.67;;;24.20;99.60;;;;;;5037199;28;20064;-71
2022/06/03 13:53:23;;;;;;;3.47;1.33;;;24.20;99.90;;;;;;5036662;28;20069;-70
2022/06/03 13:55:55;;;;;;;2.38;1.23;;;24.20;99.80;;;;;;5036818;28;20109;-70
2022/06/03 13:58:30;;;;;;;3.00;1.38;;;24.50;97.80;;;;;;5036603;28;20017;-71
2022/06/03 14:01:20;;;;;;;7.40;1.55;;;24.50;99.90;;;;;;5036744;28;20466;-71
2022/06/03 14:03:58;;;;;;;1.88;1.30;;;24.40;99.90;;;;;;5036343;28;20069;-71
2022/06/03 14:06:45;;;;;;;3.50;1.40;;;24.40;99.90;;;;;;5018775;28;20028;-71
2022/06/03 14:09:30;;;;;;;5.32;1.77;;;24.40;97.10;;;;;;5036329;28;20044;-71
2022/06/03 14:12:11;;;;;;;4.68;1.17;;;24.40;97.80;;;;;;5036298;28;20446;-71
2022/06/03 14:15:04;;;;;;;7.82;1.38;;;24.40;98.20;;;;;;5036550;28;20030;-71